sensor_id;sensor_type;location;lat;lon;timestamp;temperature;humidity
15394;DHT22;7795;47.986;11.868;2022-09-16T00:00:50;18.00;78.70
15394;DHT22;7795;47.986;11.868;2022-09-16T00:03:17;18.00;78.70
15394;DHT22;7795;47.986;11.868;2022-09-16T00:05:44;18.00;78.70
15394;DHT22;7795;47.986;11.868;2022-09-16T00:08:10;18.00;78.70
15394;DHT22;7795;47.986;11.868;2022-09-16T00:10:38;18.00;78.70
15394;DHT22;7795;47.986;11.868;2022-09-16T00:13:04;18.00;78.70
15394;DHT22;7795;47.986;11.868;2022-09-16T00:15:30;18.00;78.70
15394;DHT22;7795;47.986;11.868;2022-09-16T00:17:55;18.00;78.70
15394;DHT22;7795;47.986;11.868;2022-09-16T00:20:21;17.90;78.70
15394;DHT22;7795;47.986;11.868;2022-09-16T00:22:47;17.90;78.70
15394;DHT22;7795;47.986;11.868;2022-09-16T00:25:13;17.90;78.60
15394;DHT22;7795;47.986;11.868;2022-09-16T00:27:40;17.90;78.70
15394;DHT22;7795;47.986;11.868;2022-09-16T00:30:07;17.80;78.70
15394;DHT22;7795;47.986;11.868;2022-09-16T00:32:33;17.80;78.80
15394;DHT22;7795;47.986;11.868;2022-09-16T00:34:58;17.80;78.90
15394;DHT22;7795;47.986;11.868;2022-09-16T00:37:24;17.80;79.00
15394;DHT22;7795;47.986;11.868;2022-09-16T00:39:50;17.80;79.10
15394;DHT22;7795;47.986;11.868;2022-09-16T00:42:17;17.80;79.20
15394;DHT22;7795;47.986;11.868;2022-09-16T00:44:57;17.80;79.10
15394;DHT22;7795;47.986;11.868;2022-09-16T00:47:28;17.80;79.30
15394;DHT22;7795;47.986;11.868;2022-09-16T00:49:58;17.80;79.20
15394;DHT22;7795;47.986;11.868;2022-09-16T00:52:26;17.70;79.00
15394;DHT22;7795;47.986;11.868;2022-09-16T00:54:53;17.70;79.10
15394;DHT22;7795;47.986;11.868;2022-09-16T00:57:18;17.70;79.10
15394;DHT22;7795;47.986;11.868;2022-09-16T00:59:47;17.70;79.10
15394;DHT22;7795;47.986;11.868;2022-09-16T01:02:18;17.70;79.20
15394;DHT22;7795;47.986;11.868;2022-09-16T01:04:47;17.70;79.20
15394;DHT22;7795;47.986;11.868;2022-09-16T01:07:17;17.70;79.20
15394;DHT22;7795;47.986;11.868;2022-09-16T01:09:42;17.70;79.20
15394;DHT22;7795;47.986;11.868;2022-09-16T01:12:08;17.70;79.10
15394;DHT22;7795;47.986;11.868;2022-09-16T01:14:34;17.70;79.10
15394;DHT22;7795;47.986;11.868;2022-09-16T01:17:38;17.70;79.20
15394;DHT22;7795;47.986;11.868;2022-09-16T01:20:29;17.70;79.20
15394;DHT22;7795;47.986;11.868;2022-09-16T01:23:12;17.80;79.30
15394;DHT22;7795;47.986;11.868;2022-09-16T01:25:52;17.70;79.00
15394;DHT22;7795;47.986;11.868;2022-09-16T01:28:52;17.70;79.00
15394;DHT22;7795;47.986;11.868;2022-09-16T01:31:29;17.70;78.90
15394;DHT22;7795;47.986;11.868;2022-09-16T01:34:06;17.70;78.70
15394;DHT22;7795;47.986;11.868;2022-09-16T01:36:42;17.70;78.90
15394;DHT22;7795;47.986;11.868;2022-09-16T01:39:17;17.70;78.90
15394;DHT22;7795;47.986;11.868;2022-09-16T01:42:03;17.70;78.90
15394;DHT22;7795;47.986;11.868;2022-09-16T01:44:36;17.70;78.90
15394;DHT22;7795;47.986;11.868;2022-09-16T01:47:11;17.60;78.70
15394;DHT22;7795;47.986;11.868;2022-09-16T01:49:44;17.60;78.70
15394;DHT22;7795;47.986;11.868;2022-09-16T01:52:19;17.60;78.70
15394;DHT22;7795;47.986;11.868;2022-09-16T01:54:50;17.60;78.70
15394;DHT22;7795;47.986;11.868;2022-09-16T01:57:22;17.60;78.70
15394;DHT22;7795;47.986;11.868;2022-09-16T01:59:54;17.60;78.70
15394;DHT22;7795;47.986;11.868;2022-09-16T02:02:26;17.50;78.60
15394;DHT22;7795;47.986;11.868;2022-09-16T02:04:55;17.60;78.60
15394;DHT22;7795;47.986;11.868;2022-09-16T02:07:25;17.50;78.60
15394;DHT22;7795;47.986;11.868;2022-09-16T02:09:56;17.50;78.70
15394;DHT22;7795;47.986;11.868;2022-09-16T02:12:25;17.50;78.80
15394;DHT22;7795;47.986;11.868;2022-09-16T02:14:55;17.50;78.90
15394;DHT22;7795;47.986;11.868;2022-09-16T02:17:25;17.50;78.90
15394;DHT22;7795;47.986;11.868;2022-09-16T02:19:55;17.50;78.90
15394;DHT22;7795;47.986;11.868;2022-09-16T02:22:26;17.50;79.00
15394;DHT22;7795;47.986;11.868;2022-09-16T02:24:54;17.40;79.00
15394;DHT22;7795;47.986;11.868;2022-09-16T02:27:22;17.40;78.90
15394;DHT22;7795;47.986;11.868;2022-09-16T02:29:51;17.40;78.90
15394;DHT22;7795;47.986;11.868;2022-09-16T02:32:19;17.40;79.00
15394;DHT22;7795;47.986;11.868;2022-09-16T02:34:50;17.40;79.00
15394;DHT22;7795;47.986;11.868;2022-09-16T02:37:21;17.40;79.10
15394;DHT22;7795;47.986;11.868;2022-09-16T02:39:51;17.40;79.00
15394;DHT22;7795;47.986;11.868;2022-09-16T02:42:17;17.40;78.90
15394;DHT22;7795;47.986;11.868;2022-09-16T02:44:45;17.40;78.80
15394;DHT22;7795;47.986;11.868;2022-09-16T02:47:15;17.40;78.90
15394;DHT22;7795;47.986;11.868;2022-09-16T02:49:46;17.40;78.90
15394;DHT22;7795;47.986;11.868;2022-09-16T02:52:22;17.40;78.80
15394;DHT22;7795;47.986;11.868;2022-09-16T02:54:57;17.30;78.80
15394;DHT22;7795;47.986;11.868;2022-09-16T02:57:25;17.40;78.80
15394;DHT22;7795;47.986;11.868;2022-09-16T02:59:52;17.40;78.70
15394;DHT22;7795;47.986;11.868;2022-09-16T03:02:19;17.30;78.80
15394;DHT22;7795;47.986;11.868;2022-09-16T03:04:45;17.30;78.80
15394;DHT22;7795;47.986;11.868;2022-09-16T03:07:12;17.30;78.80
15394;DHT22;7795;47.986;11.868;2022-09-16T03:09:43;17.30;78.70
15394;DHT22;7795;47.986;11.868;2022-09-16T03:12:35;17.30;78.70
15394;DHT22;7795;47.986;11.868;2022-09-16T03:15:12;17.30;78.80
15394;DHT22;7795;47.986;11.868;2022-09-16T03:18:00;17.30;78.80
15394;DHT22;7795;47.986;11.868;2022-09-16T03:20:33;17.30;78.80
15394;DHT22;7795;47.986;11.868;2022-09-16T03:23:10;17.30;78.80
15394;DHT22;7795;47.986;11.868;2022-09-16T03:25:45;17.30;78.80
15394;DHT22;7795;47.986;11.868;2022-09-16T03:28:16;17.30;78.80
15394;DHT22;7795;47.986;11.868;2022-09-16T03:30:49;17.30;78.80
15394;DHT22;7795;47.986;11.868;2022-09-16T03:33:23;17.30;78.80
15394;DHT22;7795;47.986;11.868;2022-09-16T03:35:51;17.40;78.80
15394;DHT22;7795;47.986;11.868;2022-09-16T03:38:20;17.30;78.80
15394;DHT22;7795;47.986;11.868;2022-09-16T03:40:47;17.30;78.80
15394;DHT22;7795;47.986;11.868;2022-09-16T03:43:15;17.30;78.70
15394;DHT22;7795;47.986;11.868;2022-09-16T03:45:41;17.30;78.60
15394;DHT22;7795;47.986;11.868;2022-09-16T03:48:08;17.30;78.60
15394;DHT22;7795;47.986;11.868;2022-09-16T03:50:34;17.30;78.60
15394;DHT22;7795;47.986;11.868;2022-09-16T03:53:00;17.30;78.70
15394;DHT22;7795;47.986;11.868;2022-09-16T03:55:26;17.30;78.70
15394;DHT22;7795;47.986;11.868;2022-09-16T03:57:53;17.30;79.50
15394;DHT22;7795;47.986;11.868;2022-09-16T04:00:19;17.30;78.70
15394;DHT22;7795;47.986;11.868;2022-09-16T04:02:45;17.30;78.70
15394;DHT22;7795;47.986;11.868;2022-09-16T04:05:11;17.30;78.70
15394;DHT22;7795;47.986;11.868;2022-09-16T04:07:37;17.30;78.60
15394;DHT22;7795;47.986;11.868;2022-09-16T04:10:03;17.30;78.60
15394;DHT22;7795;47.986;11.868;2022-09-16T04:12:29;17.20;78.70
15394;DHT22;7795;47.986;11.868;2022-09-16T04:14:57;17.20;78.70
15394;DHT22;7795;47.986;11.868;2022-09-16T04:17:22;17.20;78.70
15394;DHT22;7795;47.986;11.868;2022-09-16T04:19:49;17.20;78.70
15394;DHT22;7795;47.986;11.868;2022-09-16T04:22:14;17.20;78.80
15394;DHT22;7795;47.986;11.868;2022-09-16T04:24:40;17.20;78.80
15394;DHT22;7795;47.986;11.868;2022-09-16T04:27:06;17.20;78.90
15394;DHT22;7795;47.986;11.868;2022-09-16T04:29:31;17.10;78.80
15394;DHT22;7795;47.986;11.868;2022-09-16T04:31:59;17.10;79.40
15394;DHT22;7795;47.986;11.868;2022-09-16T04:34:24;17.10;78.90
15394;DHT22;7795;47.986;11.868;2022-09-16T04:36:51;17.10;78.90
15394;DHT22;7795;47.986;11.868;2022-09-16T04:39:17;17.10;78.80
15394;DHT22;7795;47.986;11.868;2022-09-16T04:41:42;17.10;78.90
15394;DHT22;7795;47.986;11.868;2022-09-16T04:44:09;17.10;78.90
15394;DHT22;7795;47.986;11.868;2022-09-16T04:46:35;17.10;79.00
15394;DHT22;7795;47.986;11.868;2022-09-16T04:49:02;17.00;78.90
15394;DHT22;7795;47.986;11.868;2022-09-16T04:51:28;17.00;79.00
15394;DHT22;7795;47.986;11.868;2022-09-16T04:53:56;17.00;79.10
15394;DHT22;7795;47.986;11.868;2022-09-16T04:56:23;17.00;79.10
15394;DHT22;7795;47.986;11.868;2022-09-16T04:58:51;17.00;79.20
15394;DHT22;7795;47.986;11.868;2022-09-16T05:01:19;17.00;79.30
15394;DHT22;7795;47.986;11.868;2022-09-16T05:03:47;16.90;79.30
15394;DHT22;7795;47.986;11.868;2022-09-16T05:06:15;16.90;79.40
15394;DHT22;7795;47.986;11.868;2022-09-16T05:08:41;16.90;79.50
15394;DHT22;7795;47.986;11.868;2022-09-16T05:11:09;16.90;79.50
15394;DHT22;7795;47.986;11.868;2022-09-16T05:13:36;16.90;79.50
15394;DHT22;7795;47.986;11.868;2022-09-16T05:16:03;17.00;79.50
15394;DHT22;7795;47.986;11.868;2022-09-16T05:18:29;17.00;79.60
15394;DHT22;7795;47.986;11.868;2022-09-16T05:20:57;17.00;79.60
15394;DHT22;7795;47.986;11.868;2022-09-16T05:23:24;17.00;79.70
15394;DHT22;7795;47.986;11.868;2022-09-16T05:25:50;17.00;79.70
15394;DHT22;7795;47.986;11.868;2022-09-16T05:28:16;17.00;79.50
15394;DHT22;7795;47.986;11.868;2022-09-16T05:30:42;17.00;79.50
15394;DHT22;7795;47.986;11.868;2022-09-16T05:33:09;17.10;79.60
15394;DHT22;7795;47.986;11.868;2022-09-16T05:35:34;17.00;79.50
15394;DHT22;7795;47.986;11.868;2022-09-16T05:38:00;17.10;79.90
15394;DHT22;7795;47.986;11.868;2022-09-16T05:40:27;17.10;79.70
15394;DHT22;7795;47.986;11.868;2022-09-16T05:42:53;17.10;79.70
15394;DHT22;7795;47.986;11.868;2022-09-16T05:45:19;17.10;79.60
15394;DHT22;7795;47.986;11.868;2022-09-16T05:47:46;17.20;79.70
15394;DHT22;7795;47.986;11.868;2022-09-16T05:50:12;17.20;79.70
15394;DHT22;7795;47.986;11.868;2022-09-16T05:52:38;17.20;80.40
15394;DHT22;7795;47.986;11.868;2022-09-16T05:55:04;17.20;79.60
15394;DHT22;7795;47.986;11.868;2022-09-16T05:57:31;17.20;79.60
15394;DHT22;7795;47.986;11.868;2022-09-16T05:59:57;17.30;79.70
15394;DHT22;7795;47.986;11.868;2022-09-16T06:02:23;17.30;79.50
15394;DHT22;7795;47.986;11.868;2022-09-16T06:04:49;17.30;79.50
15394;DHT22;7795;47.986;11.868;2022-09-16T06:07:15;17.30;80.20
15394;DHT22;7795;47.986;11.868;2022-09-16T06:09:42;17.30;79.40
15394;DHT22;7795;47.986;11.868;2022-09-16T06:12:09;17.30;79.40
15394;DHT22;7795;47.986;11.868;2022-09-16T06:14:36;17.40;79.50
15394;DHT22;7795;47.986;11.868;2022-09-16T06:17:02;17.30;79.50
15394;DHT22;7795;47.986;11.868;2022-09-16T06:19:27;17.40;79.50
15394;DHT22;7795;47.986;11.868;2022-09-16T06:21:53;17.40;79.50
15394;DHT22;7795;47.986;11.868;2022-09-16T06:24:20;17.40;79.60
15394;DHT22;7795;47.986;11.868;2022-09-16T06:26:47;17.40;79.70
15394;DHT22;7795;47.986;11.868;2022-09-16T06:29:13;17.40;79.60
15394;DHT22;7795;47.986;11.868;2022-09-16T06:31:41;17.40;79.60
15394;DHT22;7795;47.986;11.868;2022-09-16T06:34:12;17.40;79.70
15394;DHT22;7795;47.986;11.868;2022-09-16T06:36:38;17.50;79.80
15394;DHT22;7795;47.986;11.868;2022-09-16T06:39:04;17.50;79.80
15394;DHT22;7795;47.986;11.868;2022-09-16T06:41:31;17.50;79.70
15394;DHT22;7795;47.986;11.868;2022-09-16T06:44:01;17.50;79.60
15394;DHT22;7795;47.986;11.868;2022-09-16T06:46:27;17.50;79.50
15394;DHT22;7795;47.986;11.868;2022-09-16T06:48:56;17.50;79.40
15394;DHT22;7795;47.986;11.868;2022-09-16T06:51:23;17.50;79.40
15394;DHT22;7795;47.986;11.868;2022-09-16T06:53:50;17.60;79.40
15394;DHT22;7795;47.986;11.868;2022-09-16T06:56:18;17.60;79.40
15394;DHT22;7795;47.986;11.868;2022-09-16T06:58:45;17.60;79.50
15394;DHT22;7795;47.986;11.868;2022-09-16T07:01:16;17.60;79.40
15394;DHT22;7795;47.986;11.868;2022-09-16T07:03:44;17.70;79.40
15394;DHT22;7795;47.986;11.868;2022-09-16T07:06:12;17.70;79.30
15394;DHT22;7795;47.986;11.868;2022-09-16T07:08:39;17.70;79.40
15394;DHT22;7795;47.986;11.868;2022-09-16T07:11:09;17.70;79.40
15394;DHT22;7795;47.986;11.868;2022-09-16T07:13:35;17.70;79.30
15394;DHT22;7795;47.986;11.868;2022-09-16T07:16:02;17.70;79.20
15394;DHT22;7795;47.986;11.868;2022-09-16T07:18:29;17.80;79.30
15394;DHT22;7795;47.986;11.868;2022-09-16T07:21:00;17.80;79.20
15394;DHT22;7795;47.986;11.868;2022-09-16T07:23:29;17.80;79.20
15394;DHT22;7795;47.986;11.868;2022-09-16T07:26:00;17.90;79.30
15394;DHT22;7795;47.986;11.868;2022-09-16T07:28:26;17.90;80.20
15394;DHT22;7795;47.986;11.868;2022-09-16T07:30:52;17.90;79.30
15394;DHT22;7795;47.986;11.868;2022-09-16T07:33:17;17.90;79.30
15394;DHT22;7795;47.986;11.868;2022-09-16T07:35:43;18.00;79.30
15394;DHT22;7795;47.986;11.868;2022-09-16T07:38:09;18.00;79.20
15394;DHT22;7795;47.986;11.868;2022-09-16T07:40:37;18.00;79.20
15394;DHT22;7795;47.986;11.868;2022-09-16T07:43:05;18.00;78.90
15394;DHT22;7795;47.986;11.868;2022-09-16T07:45:31;18.10;78.90
15394;DHT22;7795;47.986;11.868;2022-09-16T07:47:56;18.00;78.80
15394;DHT22;7795;47.986;11.868;2022-09-16T07:50:22;18.10;78.80
15394;DHT22;7795;47.986;11.868;2022-09-16T07:52:52;18.10;78.80
15394;DHT22;7795;47.986;11.868;2022-09-16T07:55:18;18.10;78.70
15394;DHT22;7795;47.986;11.868;2022-09-16T07:57:45;18.10;78.80
15394;DHT22;7795;47.986;11.868;2022-09-16T08:00:12;18.10;78.70
15394;DHT22;7795;47.986;11.868;2022-09-16T08:02:37;18.10;78.60
15394;DHT22;7795;47.986;11.868;2022-09-16T08:05:04;18.10;78.60
15394;DHT22;7795;47.986;11.868;2022-09-16T08:07:30;18.10;78.60
15394;DHT22;7795;47.986;11.868;2022-09-16T08:09:55;18.10;79.40
15394;DHT22;7795;47.986;11.868;2022-09-16T08:12:21;18.10;78.90
15394;DHT22;7795;47.986;11.868;2022-09-16T08:14:48;18.10;79.10
15394;DHT22;7795;47.986;11.868;2022-09-16T08:17:14;18.10;79.20
15394;DHT22;7795;47.986;11.868;2022-09-16T08:19:40;18.20;79.30
15394;DHT22;7795;47.986;11.868;2022-09-16T08:22:06;18.20;79.20
15394;DHT22;7795;47.986;11.868;2022-09-16T08:24:32;18.20;79.30
15394;DHT22;7795;47.986;11.868;2022-09-16T08:26:57;18.20;79.30
15394;DHT22;7795;47.986;11.868;2022-09-16T08:29:23;18.20;79.20
15394;DHT22;7795;47.986;11.868;2022-09-16T08:31:51;18.30;79.10
15394;DHT22;7795;47.986;11.868;2022-09-16T08:34:17;18.30;79.00
15394;DHT22;7795;47.986;11.868;2022-09-16T08:36:43;18.30;79.00
15394;DHT22;7795;47.986;11.868;2022-09-16T08:39:09;18.40;78.90
15394;DHT22;7795;47.986;11.868;2022-09-16T08:41:48;18.40;78.70
15394;DHT22;7795;47.986;11.868;2022-09-16T08:44:24;18.40;79.30
15394;DHT22;7795;47.986;11.868;2022-09-16T08:46:59;18.40;78.60
15394;DHT22;7795;47.986;11.868;2022-09-16T08:49:31;18.40;78.50
15394;DHT22;7795;47.986;11.868;2022-09-16T08:51:58;18.50;78.50
15394;DHT22;7795;47.986;11.868;2022-09-16T08:54:29;18.50;78.50
15394;DHT22;7795;47.986;11.868;2022-09-16T08:56:59;18.50;78.30
15394;DHT22;7795;47.986;11.868;2022-09-16T08:59:29;18.60;78.20
15394;DHT22;7795;47.986;11.868;2022-09-16T09:02:06;18.60;78.20
15394;DHT22;7795;47.986;11.868;2022-09-16T09:04:38;18.60;78.20
15394;DHT22;7795;47.986;11.868;2022-09-16T09:07:10;18.70;78.20
15394;DHT22;7795;47.986;11.868;2022-09-16T09:09:50;18.70;78.00
15394;DHT22;7795;47.986;11.868;2022-09-16T09:12:23;18.70;77.60
15394;DHT22;7795;47.986;11.868;2022-09-16T09:15:06;18.80;77.60
15394;DHT22;7795;47.986;11.868;2022-09-16T09:17:41;18.80;77.40
15394;DHT22;7795;47.986;11.868;2022-09-16T09:20:20;18.80;77.60
15394;DHT22;7795;47.986;11.868;2022-09-16T09:23:05;18.90;77.50
15394;DHT22;7795;47.986;11.868;2022-09-16T09:25:39;18.90;77.40
15394;DHT22;7795;47.986;11.868;2022-09-16T09:28:21;19.00;77.40
15394;DHT22;7795;47.986;11.868;2022-09-16T09:30:57;19.00;77.30
15394;DHT22;7795;47.986;11.868;2022-09-16T09:33:33;19.10;77.20
15394;DHT22;7795;47.986;11.868;2022-09-16T09:36:33;19.10;77.00
15394;DHT22;7795;47.986;11.868;2022-09-16T09:39:14;19.10;76.80
15394;DHT22;7795;47.986;11.868;2022-09-16T09:41:46;19.20;76.90
15394;DHT22;7795;47.986;11.868;2022-09-16T09:47:12;19.20;76.60
15394;DHT22;7795;47.986;11.868;2022-09-16T09:49:43;19.30;76.70
15394;DHT22;7795;47.986;11.868;2022-09-16T09:52:15;19.30;76.50
15394;DHT22;7795;47.986;11.868;2022-09-16T09:54:45;19.30;76.40
15394;DHT22;7795;47.986;11.868;2022-09-16T09:57:19;19.30;76.30
15394;DHT22;7795;47.986;11.868;2022-09-16T09:59:49;19.40;76.40
15394;DHT22;7795;47.986;11.868;2022-09-16T10:02:19;19.40;76.40
15394;DHT22;7795;47.986;11.868;2022-09-16T10:04:47;19.40;76.70
15394;DHT22;7795;47.986;11.868;2022-09-16T10:07:15;19.40;76.50
15394;DHT22;7795;47.986;11.868;2022-09-16T10:09:47;19.50;76.90
15394;DHT22;7795;47.986;11.868;2022-09-16T10:12:24;19.50;75.80
15394;DHT22;7795;47.986;11.868;2022-09-16T10:14:50;19.50;76.10
15394;DHT22;7795;47.986;11.868;2022-09-16T10:17:16;19.50;75.90
15394;DHT22;7795;47.986;11.868;2022-09-16T10:19:52;19.50;75.90
15394;DHT22;7795;47.986;11.868;2022-09-16T10:22:21;19.50;75.90
15394;DHT22;7795;47.986;11.868;2022-09-16T10:24:53;19.50;76.20
15394;DHT22;7795;47.986;11.868;2022-09-16T10:27:22;19.50;76.20
15394;DHT22;7795;47.986;11.868;2022-09-16T10:30:02;19.50;76.20
15394;DHT22;7795;47.986;11.868;2022-09-16T10:32:28;19.50;76.20
15394;DHT22;7795;47.986;11.868;2022-09-16T10:34:56;19.50;76.40
15394;DHT22;7795;47.986;11.868;2022-09-16T10:37:22;19.50;77.50
15394;DHT22;7795;47.986;11.868;2022-09-16T10:39:54;19.60;77.40
15394;DHT22;7795;47.986;11.868;2022-09-16T10:42:23;19.50;76.50
15394;DHT22;7795;47.986;11.868;2022-09-16T10:44:50;19.60;76.50
15394;DHT22;7795;47.986;11.868;2022-09-16T10:47:19;19.60;76.40
15394;DHT22;7795;47.986;11.868;2022-09-16T10:49:49;19.60;76.20
15394;DHT22;7795;47.986;11.868;2022-09-16T10:52:19;19.60;76.20
15394;DHT22;7795;47.986;11.868;2022-09-16T10:54:46;19.60;76.50
15394;DHT22;7795;47.986;11.868;2022-09-16T10:57:24;19.60;76.60
15394;DHT22;7795;47.986;11.868;2022-09-16T10:59:59;19.70;76.00
15394;DHT22;7795;47.986;11.868;2022-09-16T11:02:40;19.70;75.90
15394;DHT22;7795;47.986;11.868;2022-09-16T11:05:11;19.70;75.90
15394;DHT22;7795;47.986;11.868;2022-09-16T11:07:49;19.70;75.90
15394;DHT22;7795;47.986;11.868;2022-09-16T11:10:23;19.80;75.80
15394;DHT22;7795;47.986;11.868;2022-09-16T11:13:11;19.80;75.30
15394;DHT22;7795;47.986;11.868;2022-09-16T11:15:50;19.80;74.90
15394;DHT22;7795;47.986;11.868;2022-09-16T11:18:24;19.80;75.30
15394;DHT22;7795;47.986;11.868;2022-09-16T11:21:14;19.80;75.90
15394;DHT22;7795;47.986;11.868;2022-09-16T11:23:58;19.90;75.90
15394;DHT22;7795;47.986;11.868;2022-09-16T11:26:30;19.90;76.20
15394;DHT22;7795;47.986;11.868;2022-09-16T11:29:17;20.00;76.50
15394;DHT22;7795;47.986;11.868;2022-09-16T11:31:52;20.10;75.80
15394;DHT22;7795;47.986;11.868;2022-09-16T11:34:30;20.20;75.90
15394;DHT22;7795;47.986;11.868;2022-09-16T11:37:07;20.40;75.40
15394;DHT22;7795;47.986;11.868;2022-09-16T11:39:52;20.50;75.10
15394;DHT22;7795;47.986;11.868;2022-09-16T11:42:28;20.60;74.60
15394;DHT22;7795;47.986;11.868;2022-09-16T11:45:05;20.70;74.60
15394;DHT22;7795;47.986;11.868;2022-09-16T11:47:48;20.80;74.30
15394;DHT22;7795;47.986;11.868;2022-09-16T11:50:36;20.80;74.00
15394;DHT22;7795;47.986;11.868;2022-09-16T11:53:35;20.90;73.80
15394;DHT22;7795;47.986;11.868;2022-09-16T11:56:07;21.00;73.70
15394;DHT22;7795;47.986;11.868;2022-09-16T11:58:40;21.00;73.50
15394;DHT22;7795;47.986;11.868;2022-09-16T12:01:16;21.10;73.50
15394;DHT22;7795;47.986;11.868;2022-09-16T12:03:48;21.10;73.30
15394;DHT22;7795;47.986;11.868;2022-09-16T12:06:20;21.10;73.20
15394;DHT22;7795;47.986;11.868;2022-09-16T12:08:52;21.10;73.20
15394;DHT22;7795;47.986;11.868;2022-09-16T12:11:24;21.10;73.20
15394;DHT22;7795;47.986;11.868;2022-09-16T12:13:54;21.10;73.30
15394;DHT22;7795;47.986;11.868;2022-09-16T12:16:28;21.10;73.00
15394;DHT22;7795;47.986;11.868;2022-09-16T12:18:58;21.10;72.30
15394;DHT22;7795;47.986;11.868;2022-09-16T12:21:30;21.00;71.60
15394;DHT22;7795;47.986;11.868;2022-09-16T12:24:00;20.80;70.60
15394;DHT22;7795;47.986;11.868;2022-09-16T12:26:32;20.60;70.30
15394;DHT22;7795;47.986;11.868;2022-09-16T12:29:02;20.30;70.50
15394;DHT22;7795;47.986;11.868;2022-09-16T12:31:33;20.00;70.60
15394;DHT22;7795;47.986;11.868;2022-09-16T12:34:04;19.70;70.50
15394;DHT22;7795;47.986;11.868;2022-09-16T12:36:35;19.40;70.70
15394;DHT22;7795;47.986;11.868;2022-09-16T12:39:02;19.10;71.50
15394;DHT22;7795;47.986;11.868;2022-09-16T12:41:58;18.80;72.10
15394;DHT22;7795;47.986;11.868;2022-09-16T12:44:44;18.50;72.60
15394;DHT22;7795;47.986;11.868;2022-09-16T12:47:36;18.30;73.50
15394;DHT22;7795;47.986;11.868;2022-09-16T12:50:25;18.10;74.10
15394;DHT22;7795;47.986;11.868;2022-09-16T12:53:26;18.00;74.10
15394;DHT22;7795;47.986;11.868;2022-09-16T12:56:01;17.80;74.00
15394;DHT22;7795;47.986;11.868;2022-09-16T12:58:50;17.70;74.00
15394;DHT22;7795;47.986;11.868;2022-09-16T13:01:21;17.60;74.00
15394;DHT22;7795;47.986;11.868;2022-09-16T13:03:51;17.40;74.30
15394;DHT22;7795;47.986;11.868;2022-09-16T13:06:22;17.30;74.40
15394;DHT22;7795;47.986;11.868;2022-09-16T13:08:49;17.20;74.60
15394;DHT22;7795;47.986;11.868;2022-09-16T13:11:19;17.20;74.90
15394;DHT22;7795;47.986;11.868;2022-09-16T13:13:48;17.10;75.20
15394;DHT22;7795;47.986;11.868;2022-09-16T13:16:26;17.00;75.30
15394;DHT22;7795;47.986;11.868;2022-09-16T13:19:18;16.90;75.40
15394;DHT22;7795;47.986;11.868;2022-09-16T13:21:47;16.90;75.60
15394;DHT22;7795;47.986;11.868;2022-09-16T13:24:19;16.80;75.60
15394;DHT22;7795;47.986;11.868;2022-09-16T13:26:46;16.70;76.30
15394;DHT22;7795;47.986;11.868;2022-09-16T13:29:39;16.70;76.10
15394;DHT22;7795;47.986;11.868;2022-09-16T13:32:27;16.70;76.80
15394;DHT22;7795;47.986;11.868;2022-09-16T13:35:03;16.60;76.60
15394;DHT22;7795;47.986;11.868;2022-09-16T13:37:29;16.60;76.60
15394;DHT22;7795;47.986;11.868;2022-09-16T13:39:55;16.60;76.90
15394;DHT22;7795;47.986;11.868;2022-09-16T13:42:21;16.50;77.10
15394;DHT22;7795;47.986;11.868;2022-09-16T13:44:50;16.50;76.80
15394;DHT22;7795;47.986;11.868;2022-09-16T13:47:27;16.50;76.60
15394;DHT22;7795;47.986;11.868;2022-09-16T13:49:56;16.50;76.70
15394;DHT22;7795;47.986;11.868;2022-09-16T13:52:28;16.50;77.00
15394;DHT22;7795;47.986;11.868;2022-09-16T13:54:56;16.50;77.10
15394;DHT22;7795;47.986;11.868;2022-09-16T13:57:39;16.50;76.90
15394;DHT22;7795;47.986;11.868;2022-09-16T14:00:14;16.50;77.10
15394;DHT22;7795;47.986;11.868;2022-09-16T14:02:54;16.50;77.00
15394;DHT22;7795;47.986;11.868;2022-09-16T14:05:29;16.50;76.90
15394;DHT22;7795;47.986;11.868;2022-09-16T14:08:03;16.50;77.00
15394;DHT22;7795;47.986;11.868;2022-09-16T14:10:38;16.50;76.90
15394;DHT22;7795;47.986;11.868;2022-09-16T14:13:10;16.50;76.90
15394;DHT22;7795;47.986;11.868;2022-09-16T14:15:41;16.50;76.90
15394;DHT22;7795;47.986;11.868;2022-09-16T14:18:11;16.50;77.00
15394;DHT22;7795;47.986;11.868;2022-09-16T14:20:38;16.50;76.80
15394;DHT22;7795;47.986;11.868;2022-09-16T14:23:16;16.50;76.90
15394;DHT22;7795;47.986;11.868;2022-09-16T14:25:42;16.50;77.10
15394;DHT22;7795;47.986;11.868;2022-09-16T14:28:19;16.50;77.20
15394;DHT22;7795;47.986;11.868;2022-09-16T14:30:48;16.50;77.40
15394;DHT22;7795;47.986;11.868;2022-09-16T14:33:16;16.40;77.20
15394;DHT22;7795;47.986;11.868;2022-09-16T14:35:45;16.40;77.20
15394;DHT22;7795;47.986;11.868;2022-09-16T14:38:15;16.40;77.80
15394;DHT22;7795;47.986;11.868;2022-09-16T14:40:42;16.40;76.90
15394;DHT22;7795;47.986;11.868;2022-09-16T14:43:14;16.30;76.90
15394;DHT22;7795;47.986;11.868;2022-09-16T14:45:44;16.30;77.10
15394;DHT22;7795;47.986;11.868;2022-09-16T14:48:13;16.30;77.40
15394;DHT22;7795;47.986;11.868;2022-09-16T14:50:43;16.30;77.50
15394;DHT22;7795;47.986;11.868;2022-09-16T14:53:23;16.30;77.60
15394;DHT22;7795;47.986;11.868;2022-09-16T14:55:49;16.30;77.70
15394;DHT22;7795;47.986;11.868;2022-09-16T14:58:15;16.30;77.50
15394;DHT22;7795;47.986;11.868;2022-09-16T15:00:46;16.30;77.60
15394;DHT22;7795;47.986;11.868;2022-09-16T15:03:16;16.30;77.80
15394;DHT22;7795;47.986;11.868;2022-09-16T15:05:44;16.40;77.70
15394;DHT22;7795;47.986;11.868;2022-09-16T15:08:16;16.40;78.20
15394;DHT22;7795;47.986;11.868;2022-09-16T15:10:45;16.40;77.60
15394;DHT22;7795;47.986;11.868;2022-09-16T15:13:14;16.40;77.70
15394;DHT22;7795;47.986;11.868;2022-09-16T15:15:46;16.40;77.90
15394;DHT22;7795;47.986;11.868;2022-09-16T15:18:22;16.40;77.90
15394;DHT22;7795;47.986;11.868;2022-09-16T15:21:00;16.40;77.90
15394;DHT22;7795;47.986;11.868;2022-09-16T15:23:27;16.40;77.70
15394;DHT22;7795;47.986;11.868;2022-09-16T15:25:56;16.50;77.50
15394;DHT22;7795;47.986;11.868;2022-09-16T15:28:22;16.50;77.50
15394;DHT22;7795;47.986;11.868;2022-09-16T15:30:50;16.50;77.60
15394;DHT22;7795;47.986;11.868;2022-09-16T15:33:25;16.40;77.80
15394;DHT22;7795;47.986;11.868;2022-09-16T15:35:51;16.50;78.00
15394;DHT22;7795;47.986;11.868;2022-09-16T15:38:20;16.50;77.90
15394;DHT22;7795;47.986;11.868;2022-09-16T15:40:46;16.50;78.10
15394;DHT22;7795;47.986;11.868;2022-09-16T15:43:15;16.50;77.90
15394;DHT22;7795;47.986;11.868;2022-09-16T15:45:43;16.50;77.60
15394;DHT22;7795;47.986;11.868;2022-09-16T15:48:14;16.50;77.60
15394;DHT22;7795;47.986;11.868;2022-09-16T15:50:45;16.50;77.50
15394;DHT22;7795;47.986;11.868;2022-09-16T15:53:18;16.50;77.50
15394;DHT22;7795;47.986;11.868;2022-09-16T15:55:53;16.50;77.60